sensor_id;sensor_type;location;lat;lon;timestamp;P1;durP1;ratioP1;P2;durP2;ratioP2
24389;SDS011;12510;56.468;-3.004;2023-03-31T00:00:07;13.02;;;5.28;;
24389;SDS011;12510;56.468;-3.004;2023-03-31T00:05:06;8.63;;;3.15;;
24389;SDS011;12510;56.468;-3.004;2023-03-31T00:07:34;6.78;;;3.60;;
24389;SDS011;12510;56.468;-3.004;2023-03-31T00:10:03;11.30;;;3.75;;
24389;SDS011;12510;56.468;-3.004;2023-03-31T00:12:30;8.27;;;3.67;;
24389;SDS011;12510;56.468;-3.004;2023-03-31T00:14:57;11.88;;;4.65;;
24389;SDS011;12510;56.468;-3.004;2023-03-31T00:17:23;12.07;;;3.97;;
24389;SDS011;12510;56.468;-3.004;2023-03-31T00:19:50;10.52;;;3.65;;
24389;SDS011;12510;56.468;-3.004;2023-03-31T00:22:16;9.95;;;3.63;;
24389;SDS011;12510;56.468;-3.004;2023-03-31T00:24:52;12.00;;;3.72;;
24389;SDS011;12510;56.468;-3.004;2023-03-31T00:27:19;12.48;;;4.28;;
24389;SDS011;12510;56.468;-3.004;2023-03-31T00:29:45;7.18;;;4.03;;
24389;SDS011;12510;56.468;-3.004;2023-03-31T00:32:12;9.07;;;3.42;;
24389;SDS011;12510;56.468;-3.004;2023-03-31T00:34:39;11.43;;;4.15;;
24389;SDS011;12510;56.468;-3.004;2023-03-31T00:37:06;9.25;;;3.20;;
24389;SDS011;12510;56.468;-3.004;2023-03-31T00:39:34;13.48;;;3.92;;
24389;SDS011;12510;56.468;-3.004;2023-03-31T00:42:02;10.38;;;3.58;;
24389;SDS011;12510;56.468;-3.004;2023-03-31T00:44:29;10.70;;;3.83;;
24389;SDS011;12510;56.468;-3.004;2023-03-31T00:47:14;11.18;;;3.83;;
24389;SDS011;12510;56.468;-3.004;2023-03-31T00:49:53;8.77;;;3.08;;
24389;SDS011;12510;56.468;-3.004;2023-03-31T00:52:29;12.43;;;3.55;;
24389;SDS011;12510;56.468;-3.004;2023-03-31T00:55:13;8.60;;;3.25;;
24389;SDS011;12510;56.468;-3.004;2023-03-31T00:57:44;10.65;;;3.60;;
24389;SDS011;12510;56.468;-3.004;2023-03-31T01:00:13;9.48;;;3.88;;
24389;SDS011;12510;56.468;-3.004;2023-03-31T01:02:41;8.80;;;3.35;;
24389;SDS011;12510;56.468;-3.004;2023-03-31T01:05:19;9.88;;;3.55;;
24389;SDS011;12510;56.468;-3.004;2023-03-31T01:07:50;9.13;;;3.55;;
24389;SDS011;12510;56.468;-3.004;2023-03-31T01:10:19;8.27;;;3.20;;
24389;SDS011;12510;56.468;-3.004;2023-03-31T01:12:49;7.57;;;4.03;;
24389;SDS011;12510;56.468;-3.004;2023-03-31T01:15:19;8.77;;;3.58;;
24389;SDS011;12510;56.468;-3.004;2023-03-31T01:17:46;8.95;;;3.45;;
24389;SDS011;12510;56.468;-3.004;2023-03-31T01:46:32;15.65;;;4.53;;
24389;SDS011;12510;56.468;-3.004;2023-03-31T01:49:13;13.45;;;4.00;;
24389;SDS011;12510;56.468;-3.004;2023-03-31T01:57:44;10.35;;;3.67;;
24389;SDS011;12510;56.468;-3.004;2023-03-31T02:00:16;12.57;;;3.38;;
24389;SDS011;12510;56.468;-3.004;2023-03-31T02:03:05;8.65;;;3.63;;
24389;SDS011;12510;56.468;-3.004;2023-03-31T02:05:46;9.13;;;3.33;;
24389;SDS011;12510;56.468;-3.004;2023-03-31T02:08:19;10.30;;;4.05;;
24389;SDS011;12510;56.468;-3.004;2023-03-31T02:11:07;12.05;;;4.00;;
24389;SDS011;12510;56.468;-3.004;2023-03-31T02:13:33;12.40;;;4.32;;
24389;SDS011;12510;56.468;-3.004;2023-03-31T02:16:04;11.63;;;4.30;;
24389;SDS011;12510;56.468;-3.004;2023-03-31T02:18:43;8.82;;;3.08;;
24389;SDS011;12510;56.468;-3.004;2023-03-31T02:21:15;13.27;;;4.10;;
24389;SDS011;12510;56.468;-3.004;2023-03-31T02:23:43;11.85;;;3.78;;
24389;SDS011;12510;56.468;-3.004;2023-03-31T02:28:39;15.60;;;4.32;;
24389;SDS011;12510;56.468;-3.004;2023-03-31T02:31:12;9.45;;;3.83;;
24389;SDS011;12510;56.468;-3.004;2023-03-31T02:33:59;11.18;;;3.88;;
24389;SDS011;12510;56.468;-3.004;2023-03-31T02:36:26;10.93;;;3.95;;
24389;SDS011;12510;56.468;-3.004;2023-03-31T02:39:03;10.40;;;3.50;;
24389;SDS011;12510;56.468;-3.004;2023-03-31T02:41:33;9.35;;;4.32;;
24389;SDS011;12510;56.468;-3.004;2023-03-31T02:44:00;14.48;;;5.25;;
24389;SDS011;12510;56.468;-3.004;2023-03-31T02:46:27;10.68;;;3.83;;
24389;SDS011;12510;56.468;-3.004;2023-03-31T02:48:55;14.07;;;4.25;;
24389;SDS011;12510;56.468;-3.004;2023-03-31T02:54:17;13.50;;;4.45;;
24389;SDS011;12510;56.468;-3.004;2023-03-31T03:08:02;12.40;;;3.50;;
24389;SDS011;12510;56.468;-3.004;2023-03-31T03:10:54;11.82;;;4.43;;
24389;SDS011;12510;56.468;-3.004;2023-03-31T03:13:45;15.77;;;5.03;;
24389;SDS011;12510;56.468;-3.004;2023-03-31T03:19:22;14.15;;;4.40;;
24389;SDS011;12510;56.468;-3.004;2023-03-31T03:21:49;13.90;;;4.00;;
24389;SDS011;12510;56.468;-3.004;2023-03-31T03:24:16;16.17;;;5.10;;
24389;SDS011;12510;56.468;-3.004;2023-03-31T03:26:43;14.98;;;4.22;;
24389;SDS011;12510;56.468;-3.004;2023-03-31T03:29:10;15.82;;;4.07;;
24389;SDS011;12510;56.468;-3.004;2023-03-31T03:31:41;13.68;;;4.55;;
24389;SDS011;12510;56.468;-3.004;2023-03-31T03:34:08;14.00;;;4.95;;
24389;SDS011;12510;56.468;-3.004;2023-03-31T03:36:38;9.45;;;3.67;;
24389;SDS011;12510;56.468;-3.004;2023-03-31T03:39:05;18.52;;;5.70;;
24389;SDS011;12510;56.468;-3.004;2023-03-31T03:41:33;15.68;;;4.60;;
24389;SDS011;12510;56.468;-3.004;2023-03-31T03:43:59;14.93;;;4.93;;
24389;SDS011;12510;56.468;-3.004;2023-03-31T03:46:26;11.82;;;3.97;;
24389;SDS011;12510;56.468;-3.004;2023-03-31T03:48:52;12.98;;;4.05;;
24389;SDS011;12510;56.468;-3.004;2023-03-31T03:51:19;14.40;;;5.07;;
24389;SDS011;12510;56.468;-3.004;2023-03-31T03:53:45;14.02;;;4.05;;
24389;SDS011;12510;56.468;-3.004;2023-03-31T03:56:12;12.52;;;4.70;;
24389;SDS011;12510;56.468;-3.004;2023-03-31T03:58:38;17.48;;;4.63;;
24389;SDS011;12510;56.468;-3.004;2023-03-31T04:01:05;14.00;;;4.07;;
24389;SDS011;12510;56.468;-3.004;2023-03-31T04:03:32;14.07;;;4.80;;
24389;SDS011;12510;56.468;-3.004;2023-03-31T04:05:58;13.95;;;4.22;;
24389;SDS011;12510;56.468;-3.004;2023-03-31T04:08:24;11.10;;;4.75;;
24389;SDS011;12510;56.468;-3.004;2023-03-31T04:10:52;13.88;;;4.68;;
24389;SDS011;12510;56.468;-3.004;2023-03-31T04:13:19;15.43;;;4.55;;
24389;SDS011;12510;56.468;-3.004;2023-03-31T04:15:45;9.77;;;4.15;;
24389;SDS011;12510;56.468;-3.004;2023-03-31T04:18:12;15.75;;;4.38;;
24389;SDS011;12510;56.468;-3.004;2023-03-31T04:20:48;15.88;;;5.10;;
24389;SDS011;12510;56.468;-3.004;2023-03-31T04:23:30;14.75;;;4.63;;
24389;SDS011;12510;56.468;-3.004;2023-03-31T04:26:08;15.05;;;5.05;;
24389;SDS011;12510;56.468;-3.004;2023-03-31T04:28:35;14.07;;;4.50;;
24389;SDS011;12510;56.468;-3.004;2023-03-31T04:31:03;14.40;;;4.55;;
24389;SDS011;12510;56.468;-3.004;2023-03-31T04:33:34;11.48;;;3.95;;
24389;SDS011;12510;56.468;-3.004;2023-03-31T04:36:07;13.23;;;4.32;;
24389;SDS011;12510;56.468;-3.004;2023-03-31T04:38:45;12.73;;;4.93;;
24389;SDS011;12510;56.468;-3.004;2023-03-31T04:41:20;15.95;;;3.95;;
24389;SDS011;12510;56.468;-3.004;2023-03-31T04:43:47;17.20;;;4.88;;
24389;SDS011;12510;56.468;-3.004;2023-03-31T04:46:13;13.52;;;4.70;;
24389;SDS011;12510;56.468;-3.004;2023-03-31T04:48:40;16.23;;;5.22;;
24389;SDS011;12510;56.468;-3.004;2023-03-31T04:51:06;13.63;;;3.90;;
24389;SDS011;12510;56.468;-3.004;2023-03-31T04:53:34;15.85;;;4.95;;
24389;SDS011;12510;56.468;-3.004;2023-03-31T04:56:00;15.68;;;4.35;;
24389;SDS011;12510;56.468;-3.004;2023-03-31T04:58:27;13.13;;;4.95;;
24389;SDS011;12510;56.468;-3.004;2023-03-31T05:00:53;19.00;;;5.40;;
24389;SDS011;12510;56.468;-3.004;2023-03-31T05:03:20;17.50;;;4.75;;
24389;SDS011;12510;56.468;-3.004;2023-03-31T05:05:46;19.30;;;5.80;;
24389;SDS011;12510;56.468;-3.004;2023-03-31T05:08:13;20.70;;;4.95;;
24389;SDS011;12510;56.468;-3.004;2023-03-31T05:10:39;11.48;;;3.15;;
24389;SDS011;12510;56.468;-3.004;2023-03-31T05:13:07;19.55;;;6.18;;
24389;SDS011;12510;56.468;-3.004;2023-03-31T05:15:36;16.27;;;5.03;;
24389;SDS011;12510;56.468;-3.004;2023-03-31T05:18:04;12.43;;;4.25;;
24389;SDS011;12510;56.468;-3.004;2023-03-31T05:20:31;15.27;;;4.20;;
24389;SDS011;12510;56.468;-3.004;2023-03-31T05:22:58;12.25;;;4.32;;
24389;SDS011;12510;56.468;-3.004;2023-03-31T05:25:24;20.35;;;5.05;;
24389;SDS011;12510;56.468;-3.004;2023-03-31T05:27:54;15.07;;;5.63;;
24389;SDS011;12510;56.468;-3.004;2023-03-31T05:30:21;12.35;;;4.30;;
24389;SDS011;12510;56.468;-3.004;2023-03-31T05:32:51;10.55;;;3.10;;
24389;SDS011;12510;56.468;-3.004;2023-03-31T05:35:18;13.45;;;4.60;;
24389;SDS011;12510;56.468;-3.004;2023-03-31T05:37:44;11.05;;;3.78;;
24389;SDS011;12510;56.468;-3.004;2023-03-31T05:40:11;9.45;;;3.75;;
24389;SDS011;12510;56.468;-3.004;2023-03-31T05:42:37;15.13;;;5.03;;
24389;SDS011;12510;56.468;-3.004;2023-03-31T05:45:04;11.48;;;3.92;;
24389;SDS011;12510;56.468;-3.004;2023-03-31T05:47:31;14.27;;;4.20;;
24389;SDS011;12510;56.468;-3.004;2023-03-31T05:49:57;10.00;;;3.15;;
24389;SDS011;12510;56.468;-3.004;2023-03-31T05:52:24;15.65;;;4.63;;
24389;SDS011;12510;56.468;-3.004;2023-03-31T05:54:51;12.05;;;4.07;;
24389;SDS011;12510;56.468;-3.004;2023-03-31T05:57:17;11.27;;;3.55;;
24389;SDS011;12510;56.468;-3.004;2023-03-31T05:59:43;7.35;;;3.10;;
24389;SDS011;12510;56.468;-3.004;2023-03-31T06:02:11;9.43;;;3.67;;
24389;SDS011;12510;56.468;-3.004;2023-03-31T06:04:38;10.80;;;3.65;;
24389;SDS011;12510;56.468;-3.004;2023-03-31T06:07:05;11.57;;;3.97;;
24389;SDS011;12510;56.468;-3.004;2023-03-31T06:09:31;8.00;;;3.00;;
24389;SDS011;12510;56.468;-3.004;2023-03-31T06:11:57;4.40;;;2.42;;
24389;SDS011;12510;56.468;-3.004;2023-03-31T06:14:24;12.40;;;3.60;;
24389;SDS011;12510;56.468;-3.004;2023-03-31T06:16:51;9.40;;;3.25;;
24389;SDS011;12510;56.468;-3.004;2023-03-31T06:19:18;8.55;;;2.95;;
24389;SDS011;12510;56.468;-3.004;2023-03-31T06:21:44;9.45;;;2.97;;
24389;SDS011;12510;56.468;-3.004;2023-03-31T06:24:11;8.75;;;2.75;;
24389;SDS011;12510;56.468;-3.004;2023-03-31T06:26:37;8.02;;;2.63;;
24389;SDS011;12510;56.468;-3.004;2023-03-31T06:29:04;9.05;;;2.80;;
24389;SDS011;12510;56.468;-3.004;2023-03-31T06:31:30;11.38;;;3.45;;
24389;SDS011;12510;56.468;-3.004;2023-03-31T06:33:57;8.13;;;2.70;;
24389;SDS011;12510;56.468;-3.004;2023-03-31T06:36:23;6.13;;;3.10;;
24389;SDS011;12510;56.468;-3.004;2023-03-31T06:38:50;14.55;;;3.28;;
24389;SDS011;12510;56.468;-3.004;2023-03-31T06:41:17;7.03;;;2.47;;
24389;SDS011;12510;56.468;-3.004;2023-03-31T06:43:45;7.57;;;2.92;;
24389;SDS011;12510;56.468;-3.004;2023-03-31T06:46:12;9.05;;;3.45;;
24389;SDS011;12510;56.468;-3.004;2023-03-31T06:48:38;6.28;;;3.08;;
24389;SDS011;12510;56.468;-3.004;2023-03-31T06:51:06;10.73;;;3.63;;
24389;SDS011;12510;56.468;-3.004;2023-03-31T06:53:33;8.77;;;4.45;;
24389;SDS011;12510;56.468;-3.004;2023-03-31T06:56:00;8.30;;;3.42;;
24389;SDS011;12510;56.468;-3.004;2023-03-31T06:58:27;5.60;;;2.83;;
24389;SDS011;12510;56.468;-3.004;2023-03-31T07:00:54;5.80;;;2.60;;
24389;SDS011;12510;56.468;-3.004;2023-03-31T07:03:21;8.18;;;3.33;;
24389;SDS011;12510;56.468;-3.004;2023-03-31T07:05:50;5.35;;;2.88;;
24389;SDS011;12510;56.468;-3.004;2023-03-31T07:08:18;7.95;;;2.80;;
24389;SDS011;12510;56.468;-3.004;2023-03-31T07:10:46;5.72;;;3.03;;
24389;SDS011;12510;56.468;-3.004;2023-03-31T07:13:17;6.32;;;3.03;;
24389;SDS011;12510;56.468;-3.004;2023-03-31T07:15:45;4.65;;;2.08;;
24389;SDS011;12510;56.468;-3.004;2023-03-31T07:18:13;7.03;;;3.33;;
24389;SDS011;12510;56.468;-3.004;2023-03-31T07:20:41;7.45;;;2.75;;
24389;SDS011;12510;56.468;-3.004;2023-03-31T07:23:08;5.07;;;2.53;;
24389;SDS011;12510;56.468;-3.004;2023-03-31T07:25:34;7.60;;;3.03;;
24389;SDS011;12510;56.468;-3.004;2023-03-31T07:28:02;6.38;;;3.50;;
24389;SDS011;12510;56.468;-3.004;2023-03-31T07:30:30;6.45;;;2.78;;
24389;SDS011;12510;56.468;-3.004;2023-03-31T07:32:56;7.88;;;5.10;;
24389;SDS011;12510;56.468;-3.004;2023-03-31T07:35:23;5.78;;;2.58;;
24389;SDS011;12510;56.468;-3.004;2023-03-31T07:37:50;6.13;;;2.92;;
24389;SDS011;12510;56.468;-3.004;2023-03-31T07:40:18;5.97;;;2.55;;
24389;SDS011;12510;56.468;-3.004;2023-03-31T07:42:50;4.75;;;2.33;;
24389;SDS011;12510;56.468;-3.004;2023-03-31T07:45:18;5.68;;;2.85;;
24389;SDS011;12510;56.468;-3.004;2023-03-31T07:47:46;5.78;;;2.50;;
24389;SDS011;12510;56.468;-3.004;2023-03-31T07:50:13;7.50;;;2.95;;
24389;SDS011;12510;56.468;-3.004;2023-03-31T07:52:42;7.65;;;2.75;;
24389;SDS011;12510;56.468;-3.004;2023-03-31T07:55:09;6.95;;;2.83;;
24389;SDS011;12510;56.468;-3.004;2023-03-31T07:57:37;5.72;;;2.10;;
24389;SDS011;12510;56.468;-3.004;2023-03-31T08:00:03;8.55;;;7.45;;
24389;SDS011;12510;56.468;-3.004;2023-03-31T08:02:38;5.03;;;2.92;;
24389;SDS011;12510;56.468;-3.004;2023-03-31T08:05:06;5.85;;;2.75;;
24389;SDS011;12510;56.468;-3.004;2023-03-31T08:07:34;3.40;;;1.98;;
24389;SDS011;12510;56.468;-3.004;2023-03-31T08:10:03;4.00;;;1.70;;
24389;SDS011;12510;56.468;-3.004;2023-03-31T08:12:31;5.15;;;1.85;;
24389;SDS011;12510;56.468;-3.004;2023-03-31T08:14:58;4.78;;;2.28;;
24389;SDS011;12510;56.468;-3.004;2023-03-31T08:17:24;5.03;;;2.30;;
24389;SDS011;12510;56.468;-3.004;2023-03-31T08:19:50;4.10;;;1.73;;
24389;SDS011;12510;56.468;-3.004;2023-03-31T08:22:17;4.22;;;1.98;;
24389;SDS011;12510;56.468;-3.004;2023-03-31T08:24:43;4.20;;;1.83;;
24389;SDS011;12510;56.468;-3.004;2023-03-31T08:27:10;4.13;;;1.98;;
24389;SDS011;12510;56.468;-3.004;2023-03-31T08:29:36;4.07;;;1.73;;
24389;SDS011;12510;56.468;-3.004;2023-03-31T08:32:03;5.95;;;1.80;;
24389;SDS011;12510;56.468;-3.004;2023-03-31T08:34:29;4.72;;;1.73;;
24389;SDS011;12510;56.468;-3.004;2023-03-31T08:36:56;3.70;;;2.20;;
24389;SDS011;12510;56.468;-3.004;2023-03-31T08:39:22;5.35;;;2.20;;
24389;SDS011;12510;56.468;-3.004;2023-03-31T08:47:12;6.63;;;2.83;;
24389;SDS011;12510;56.468;-3.004;2023-03-31T08:49:50;4.20;;;1.98;;
24389;SDS011;12510;56.468;-3.004;2023-03-31T08:54:55;9.15;;;2.88;;
24389;SDS011;12510;56.468;-3.004;2023-03-31T08:57:25;6.20;;;1.75;;
24389;SDS011;12510;56.468;-3.004;2023-03-31T08:59:57;8.77;;;2.05;;
24389;SDS011;12510;56.468;-3.004;2023-03-31T09:02:41;5.05;;;1.90;;
24389;SDS011;12510;56.468;-3.004;2023-03-31T09:16:55;8.05;;;4.35;;
24389;SDS011;12510;56.468;-3.004;2023-03-31T09:19:40;6.57;;;2.28;;
24389;SDS011;12510;56.468;-3.004;2023-03-31T09:22:24;4.68;;;1.98;;
24389;SDS011;12510;56.468;-3.004;2023-03-31T09:25:00;5.28;;;2.30;;
24389;SDS011;12510;56.468;-3.004;2023-03-31T09:27:29;3.92;;;2.40;;
24389;SDS011;12510;56.468;-3.004;2023-03-31T09:30:09;8.25;;;2.72;;
24389;SDS011;12510;56.468;-3.004;2023-03-31T09:32:43;5.90;;;2.08;;
24389;SDS011;12510;56.468;-3.004;2023-03-31T09:35:14;12.18;;;3.53;;
24389;SDS011;12510;56.468;-3.004;2023-03-31T09:37:44;9.88;;;3.78;;
24389;SDS011;12510;56.468;-3.004;2023-03-31T09:40:18;4.78;;;2.50;;
24389;SDS011;12510;56.468;-3.004;2023-03-31T09:42:49;7.60;;;2.90;;
24389;SDS011;12510;56.468;-3.004;2023-03-31T09:45:21;11.57;;;2.90;;
24389;SDS011;12510;56.468;-3.004;2023-03-31T09:47:54;6.80;;;3.00;;
24389;SDS011;12510;56.468;-3.004;2023-03-31T09:50:24;8.38;;;2.85;;
24389;SDS011;12510;56.468;-3.004;2023-03-31T09:52:52;10.48;;;3.20;;
24389;SDS011;12510;56.468;-3.004;2023-03-31T09:57:49;5.00;;;2.17;;
24389;SDS011;12510;56.468;-3.004;2023-03-31T10:00:17;5.10;;;2.97;;
24389;SDS011;12510;56.468;-3.004;2023-03-31T10:02:50;5.90;;;2.90;;
24389;SDS011;12510;56.468;-3.004;2023-03-31T10:05:23;8.05;;;3.55;;
24389;SDS011;12510;56.468;-3.004;2023-03-31T10:08:13;7.40;;;3.67;;
24389;SDS011;12510;56.468;-3.004;2023-03-31T10:13:28;5.38;;;2.75;;
24389;SDS011;12510;56.468;-3.004;2023-03-31T10:16:02;5.20;;;2.72;;
24389;SDS011;12510;56.468;-3.004;2023-03-31T10:18:35;4.65;;;2.40;;
24389;SDS011;12510;56.468;-3.004;2023-03-31T10:21:04;7.75;;;3.13;;
24389;SDS011;12510;56.468;-3.004;2023-03-31T10:23:33;5.13;;;2.88;;
24389;SDS011;12510;56.468;-3.004;2023-03-31T10:26:01;7.80;;;3.83;;
24389;SDS011;12510;56.468;-3.004;2023-03-31T10:28:32;6.05;;;3.30;;
24389;SDS011;12510;56.468;-3.004;2023-03-31T10:31:01;8.45;;;3.47;;
24389;SDS011;12510;56.468;-3.004;2023-03-31T10:33:30;6.13;;;2.92;;
24389;SDS011;12510;56.468;-3.004;2023-03-31T10:36:00;5.95;;;3.00;;
24389;SDS011;12510;56.468;-3.004;2023-03-31T10:38:35;6.82;;;3.97;;
24389;SDS011;12510;56.468;-3.004;2023-03-31T10:41:09;5.40;;;2.88;;
24389;SDS011;12510;56.468;-3.004;2023-03-31T10:43:39;6.25;;;2.92;;
24389;SDS011;12510;56.468;-3.004;2023-03-31T10:46:13;6.47;;;3.47;;
24389;SDS011;12510;56.468;-3.004;2023-03-31T10:48:40;5.63;;;3.17;;
24389;SDS011;12510;56.468;-3.004;2023-03-31T10:53:42;5.43;;;2.85;;
24389;SDS011;12510;56.468;-3.004;2023-03-31T11:18:38;5.93;;;3.20;;
24389;SDS011;12510;56.468;-3.004;2023-03-31T11:24:12;6.57;;;3.45;;
24389;SDS011;12510;56.468;-3.004;2023-03-31T11:26:58;3.45;;;2.70;;
24389;SDS011;12510;56.468;-3.004;2023-03-31T11:43:10;7.55;;;4.65;;
24389;SDS011;12510;56.468;-3.004;2023-03-31T11:45:48;6.63;;;3.17;;
24389;SDS011;12510;56.468;-3.004;2023-03-31T11:48:22;6.28;;;3.40;;
24389;SDS011;12510;56.468;-3.004;2023-03-31T11:50:53;3.55;;;2.53;;
24389;SDS011;12510;56.468;-3.004;2023-03-31T11:53:29;4.72;;;2.83;;
24389;SDS011;12510;56.468;-3.004;2023-03-31T11:55:58;6.60;;;2.85;;
24389;SDS011;12510;56.468;-3.004;2023-03-31T12:06:34;8.15;;;4.30;;
24389;SDS011;12510;56.468;-3.004;2023-03-31T12:09:12;10.07;;;6.03;;
24389;SDS011;12510;56.468;-3.004;2023-03-31T12:17:13;5.00;;;3.47;;
24389;SDS011;12510;56.468;-3.004;2023-03-31T12:22:23;3.65;;;2.90;;
24389;SDS011;12510;56.468;-3.004;2023-03-31T12:24:53;3.75;;;3.13;;
24389;SDS011;12510;56.468;-3.004;2023-03-31T12:27:27;6.97;;;3.88;;
24389;SDS011;12510;56.468;-3.004;2023-03-31T12:32:46;8.27;;;3.25;;
24389;SDS011;12510;56.468;-3.004;2023-03-31T12:35:44;5.90;;;3.58;;
24389;SDS011;12510;56.468;-3.004;2023-03-31T12:41:43;5.93;;;3.38;;
24389;SDS011;12510;56.468;-3.004;2023-03-31T12:44:35;3.50;;;2.67;;
24389;SDS011;12510;56.468;-3.004;2023-03-31T12:47:15;5.05;;;4.28;;
24389;SDS011;12510;56.468;-3.004;2023-03-31T12:55:24;3.67;;;2.67;;
24389;SDS011;12510;56.468;-3.004;2023-03-31T13:06:02;11.63;;;4.07;;
24389;SDS011;12510;56.468;-3.004;2023-03-31T13:11:15;9.05;;;4.22;;
24389;SDS011;12510;56.468;-3.004;2023-03-31T13:16:48;5.32;;;3.17;;
24389;SDS011;12510;56.468;-3.004;2023-03-31T13:19:31;6.30;;;3.17;;
24389;SDS011;12510;56.468;-3.004;2023-03-31T13:22:01;7.03;;;3.58;;
24389;SDS011;12510;56.468;-3.004;2023-03-31T13:24:30;7.20;;;3.42;;
24389;SDS011;12510;56.468;-3.004;2023-03-31T13:27:02;10.45;;;3.92;;
24389;SDS011;12510;56.468;-3.004;2023-03-31T13:29:59;7.25;;;3.00;;
24389;SDS011;12510;56.468;-3.004;2023-03-31T13:32:25;7.00;;;3.60;;
24389;SDS011;12510;56.468;-3.004;2023-03-31T13:35:06;6.25;;;3.17;;
24389;SDS011;12510;56.468;-3.004;2023-03-31T13:37:47;8.57;;;3.40;;
24389;SDS011;12510;56.468;-3.004;2023-03-31T13:43:36;6.07;;;2.58;;
24389;SDS011;12510;56.468;-3.004;2023-03-31T13:52:00;7.28;;;3.53;;
24389;SDS011;12510;56.468;-3.004;2023-03-31T14:10:42;7.63;;;3.13;;
24389;SDS011;12510;56.468;-3.004;2023-03-31T14:13:10;10.55;;;4.03;;
24389;SDS011;12510;56.468;-3.004;2023-03-31T14:15:42;8.30;;;3.80;;
24389;SDS011;12510;56.468;-3.004;2023-03-31T14:18:32;9.65;;;5.07;;
24389;SDS011;12510;56.468;-3.004;2023-03-31T14:21:03;8.73;;;3.90;;
24389;SDS011;12510;56.468;-3.004;2023-03-31T14:31:52;10.30;;;4.57;;
24389;SDS011;12510;56.468;-3.004;2023-03-31T14:34:34;7.38;;;3.97;;
24389;SDS011;12510;56.468;-3.004;2023-03-31T14:37:03;6.22;;;3.05;;
24389;SDS011;12510;56.468;-3.004;2023-03-31T14:39:40;10.07;;;3.53;;
24389;SDS011;12510;56.468;-3.004;2023-03-31T14:42:10;6.03;;;3.28;;
24389;SDS011;12510;56.468;-3.004;2023-03-31T14:44:41;7.03;;;3.50;;
24389;SDS011;12510;56.468;-3.004;2023-03-31T14:47:27;6.38;;;3.42;;
24389;SDS011;12510;56.468;-3.004;2023-03-31T14:49:58;12.32;;;3.75;;
24389;SDS011;12510;56.468;-3.004;2023-03-31T14:52:28;8.60;;;2.70;;
24389;SDS011;12510;56.468;-3.004;2023-03-31T14:54:57;8.95;;;3.67;;
24389;SDS011;12510;56.468;-3.004;2023-03-31T14:57:29;8.32;;;4.88;;
24389;SDS011;12510;56.468;-3.004;2023-03-31T15:00:00;7.07;;;3.22;;
24389;SDS011;12510;56.468;-3.004;2023-03-31T15:02:34;5.35;;;2.95;;
24389;SDS011;12510;56.468;-3.004;2023-03-31T15:05:03;8.25;;;3.00;;
24389;SDS011;12510;56.468;-3.004;2023-03-31T15:09:59;7.93;;;3.80;;
24389;SDS011;12510;56.468;-3.004;2023-03-31T15:12:27;6.10;;;2.70;;
24389;SDS011;12510;56.468;-3.004;2023-03-31T15:15:00;9.82;;;3.78;;
24389;SDS011;12510;56.468;-3.004;2023-03-31T15:17:34;7.95;;;3.42;;
24389;SDS011;12510;56.468;-3.004;2023-03-31T15:20:19;10.48;;;5.05;;
24389;SDS011;12510;56.468;-3.004;2023-03-31T15:23:23;11.88;;;3.33;;
24389;SDS011;12510;56.468;-3.004;2023-03-31T15:26:00;15.27;;;4.97;;
24389;SDS011;12510;56.468;-3.004;2023-03-31T15:28:36;9.77;;;3.67;;
24389;SDS011;12510;56.468;-3.004;2023-03-31T15:31:12;7.27;;;3.10;;
24389;SDS011;12510;56.468;-3.004;2023-03-31T15:33:39;7.30;;;2.95;;
24389;SDS011;12510;56.468;-3.004;2023-03-31T15:36:07;6.22;;;3.45;;
24389;SDS011;12510;56.468;-3.004;2023-03-31T15:38:36;8.68;;;2.50;;
24389;SDS011;12510;56.468;-3.004;2023-03-31T15:41:03;5.72;;;2.35;;
24389;SDS011;12510;56.468;-3.004;2023-03-31T15:43:41;8.73;;;2.90;;
24389;SDS011;12510;56.468;-3.004;2023-03-31T15:46:24;7.55;;;4.18;;
24389;SDS011;12510;56.468;-3.004;2023-03-31T15:49:20;8.60;;;2.78;;
24389;SDS011;12510;56.468;-3.004;2023-03-31T15:51:49;9.35;;;3.67;;
24389;SDS011;12510;56.468;-3.004;2023-03-31T15:54:39;6.65;;;3.05;;
24389;SDS011;12510;56.468;-3.004;2023-03-31T15:57:07;6.13;;;3.13;;
24389;SDS011;12510;56.468;-3.004;2023-03-31T15:59:44;6.68;;;3.05;;
24389;SDS011;12510;56.468;-3.004;2023-03-31T16:02:16;5.30;;;2.22;;
24389;SDS011;12510;56.468;-3.004;2023-03-31T16:04:48;5.33;;;2.77;;
24389;SDS011;12510;56.468;-3.004;2023-03-31T16:07:21;5.68;;;2.50;;
24389;SDS011;12510;56.468;-3.004;2023-03-31T16:17:36;5.88;;;2.42;;
24389;SDS011;12510;56.468;-3.004;2023-03-31T16:20:20;6.40;;;2.72;;
24389;SDS011;12510;56.468;-3.004;2023-03-31T16:22:52;5.65;;;2.70;;
24389;SDS011;12510;56.468;-3.004;2023-03-31T16:25:24;5.90;;;2.80;;
24389;SDS011;12510;56.468;-3.004;2023-03-31T16:27:54;7.05;;;2.80;;
24389;SDS011;12510;56.468;-3.004;2023-03-31T16:30:35;5.40;;;2.00;;
24389;SDS011;12510;56.468;-3.004;2023-03-31T16:33:04;9.05;;;2.45;;
24389;SDS011;12510;56.468;-3.004;2023-03-31T16:35:33;4.85;;;2.35;;
24389;SDS011;12510;56.468;-3.004;2023-03-31T16:38:02;10.68;;;3.38;;
24389;SDS011;12510;56.468;-3.004;2023-03-31T16:40:30;7.55;;;2.30;;
24389;SDS011;12510;56.468;-3.004;2023-03-31T16:45:35;7.50;;;2.03;;
24389;SDS011;12510;56.468;-3.004;2023-03-31T16:48:02;6.68;;;2.67;;
24389;SDS011;12510;56.468;-3.004;2023-03-31T16:50:29;7.70;;;2.65;;
24389;SDS011;12510;56.468;-3.004;2023-03-31T16:52:55;5.70;;;2.10;;
24389;SDS011;12510;56.468;-3.004;2023-03-31T16:55:23;4.65;;;2.50;;
24389;SDS011;12510;56.468;-3.004;2023-03-31T16:57:50;8.30;;;2.20;;
24389;SDS011;12510;56.468;-3.004;2023-03-31T17:00:18;8.32;;;3.88;;
24389;SDS011;12510;56.468;-3.004;2023-03-31T17:02:44;9.70;;;2.72;;
24389;SDS011;12510;56.468;-3.004;2023-03-31T17:05:12;6.00;;;2.47;;
24389;SDS011;12510;56.468;-3.004;2023-03-31T17:07:38;8.73;;;3.58;;
24389;SDS011;12510;56.468;-3.004;2023-03-31T17:10:05;9.13;;;3.25;;
24389;SDS011;12510;56.468;-3.004;2023-03-31T17:12:32;5.93;;;2.72;;
24389;SDS011;12510;56.468;-3.004;2023-03-31T17:14:59;13.80;;;3.35;;
24389;SDS011;12510;56.468;-3.004;2023-03-31T17:17:25;7.57;;;2.95;;
24389;SDS011;12510;56.468;-3.004;2023-03-31T17:19:54;7.00;;;2.63;;
24389;SDS011;12510;56.468;-3.004;2023-03-31T17:22:21;6.80;;;2.50;;
24389;SDS011;12510;56.468;-3.004;2023-03-31T17:24:48;10.50;;;4.03;;
24389;SDS011;12510;56.468;-3.004;2023-03-31T17:27:17;7.72;;;2.85;;
24389;SDS011;12510;56.468;-3.004;2023-03-31T17:29:44;8.80;;;2.97;;
24389;SDS011;12510;56.468;-3.004;2023-03-31T17:32:10;9.00;;;3.15;;
24389;SDS011;12510;56.468;-3.004;2023-03-31T17:34:38;7.82;;;3.33;;
24389;SDS011;12510;56.468;-3.004;2023-03-31T17:37:05;9.60;;;2.80;;
24389;SDS011;12510;56.468;-3.004;2023-03-31T17:39:31;6.70;;;2.67;;
24389;SDS011;12510;56.468;-3.004;2023-03-31T17:41:58;6.15;;;2.28;;
24389;SDS011;12510;56.468;-3.004;2023-03-31T17:44:24;8.70;;;3.13;;
24389;SDS011;12510;56.468;-3.004;2023-03-31T17:46:51;10.85;;;3.47;;
24389;SDS011;12510;56.468;-3.004;2023-03-31T17:49:17;8.23;;;2.78;;
24389;SDS011;12510;56.468;-3.004;2023-03-31T17:51:43;9.63;;;3.63;;
24389;SDS011;12510;56.468;-3.004;2023-03-31T17:54:10;7.90;;;2.53;;
24389;SDS011;12510;56.468;-3.004;2023-03-31T17:56:37;10.32;;;2.58;;
24389;SDS011;12510;56.468;-3.004;2023-03-31T17:59:04;5.30;;;2.22;;
24389;SDS011;12510;56.468;-3.004;2023-03-31T18:01:31;6.25;;;2.67;;
24389;SDS011;12510;56.468;-3.004;2023-03-31T18:03:58;7.32;;;2.30;;
24389;SDS011;12510;56.468;-3.004;2023-03-31T18:06:25;9.60;;;3.92;;
24389;SDS011;12510;56.468;-3.004;2023-03-31T18:08:52;5.57;;;2.13;;
24389;SDS011;12510;56.468;-3.004;2023-03-31T18:11:18;4.95;;;2.67;;
24389;SDS011;12510;56.468;-3.004;2023-03-31T18:13:45;8.25;;;3.88;;
24389;SDS011;12510;56.468;-3.004;2023-03-31T18:16:12;5.38;;;2.58;;
24389;SDS011;12510;56.468;-3.004;2023-03-31T18:18:39;6.85;;;2.85;;